sensor_id;sensor_type;location;lat;lon;timestamp;P1;durP1;ratioP1;P2;durP2;ratioP2
38843;SDS011;24596;48.080;8.362;2023-11-21T00:01:42;0.85;;;0.40;;
38843;SDS011;24596;48.080;8.362;2023-11-21T00:04:08;2.05;;;0.38;;
38843;SDS011;24596;48.080;8.362;2023-11-21T00:06:33;0.85;;;0.40;;
38843;SDS011;24596;48.080;8.362;2023-11-21T00:08:59;1.90;;;0.43;;
38843;SDS011;24596;48.080;8.362;2023-11-21T00:11:24;3.58;;;0.57;;
38843;SDS011;24596;48.080;8.362;2023-11-21T00:13:50;1.55;;;0.40;;
38843;SDS011;24596;48.080;8.362;2023-11-21T00:16:15;2.20;;;0.50;;
38843;SDS011;24596;48.080;8.362;2023-11-21T00:18:40;3.92;;;0.50;;
38843;SDS011;24596;48.080;8.362;2023-11-21T00:21:07;2.35;;;0.40;;
38843;SDS011;24596;48.080;8.362;2023-11-21T00:23:33;2.20;;;0.55;;
38843;SDS011;24596;48.080;8.362;2023-11-21T00:25:59;0.47;;;0.30;;
38843;SDS011;24596;48.080;8.362;2023-11-21T00:28:24;0.93;;;0.40;;
38843;SDS011;24596;48.080;8.362;2023-11-21T00:30:50;0.50;;;0.40;;
38843;SDS011;24596;48.080;8.362;2023-11-21T00:33:15;1.75;;;0.50;;
38843;SDS011;24596;48.080;8.362;2023-11-21T00:35:40;1.33;;;0.70;;
38843;SDS011;24596;48.080;8.362;2023-11-21T00:38:05;0.47;;;0.30;;
38843;SDS011;24596;48.080;8.362;2023-11-21T00:40:30;0.93;;;0.50;;
38843;SDS011;24596;48.080;8.362;2023-11-21T00:42:56;0.43;;;0.30;;
38843;SDS011;24596;48.080;8.362;2023-11-21T00:45:21;1.08;;;0.40;;
38843;SDS011;24596;48.080;8.362;2023-11-21T00:47:46;0.20;;;0.20;;
38843;SDS011;24596;48.080;8.362;2023-11-21T00:50:12;0.60;;;0.30;;
38843;SDS011;24596;48.080;8.362;2023-11-21T00:52:37;0.90;;;0.40;;
38843;SDS011;24596;48.080;8.362;2023-11-21T00:55:02;1.27;;;0.30;;
38843;SDS011;24596;48.080;8.362;2023-11-21T00:57:28;0.20;;;0.20;;
38843;SDS011;24596;48.080;8.362;2023-11-21T00:59:53;0.57;;;0.40;;
38843;SDS011;24596;48.080;8.362;2023-11-21T01:02:18;0.20;;;0.20;;
38843;SDS011;24596;48.080;8.362;2023-11-21T01:04:44;0.47;;;0.20;;
38843;SDS011;24596;48.080;8.362;2023-11-21T01:07:09;0.40;;;0.30;;
38843;SDS011;24596;48.080;8.362;2023-11-21T01:09:34;0.45;;;0.25;;
38843;SDS011;24596;48.080;8.362;2023-11-21T01:11:59;0.52;;;0.30;;
38843;SDS011;24596;48.080;8.362;2023-11-21T01:14:24;0.20;;;0.20;;
38843;SDS011;24596;48.080;8.362;2023-11-21T01:16:51;1.45;;;0.35;;
38843;SDS011;24596;48.080;8.362;2023-11-21T01:19:16;1.55;;;0.30;;
38843;SDS011;24596;48.080;8.362;2023-11-21T01:21:41;0.45;;;0.20;;
38843;SDS011;24596;48.080;8.362;2023-11-21T01:24:07;0.20;;;0.20;;
38843;SDS011;24596;48.080;8.362;2023-11-21T01:26:33;0.20;;;0.20;;
38843;SDS011;24596;48.080;8.362;2023-11-21T01:28:58;0.22;;;0.22;;
38843;SDS011;24596;48.080;8.362;2023-11-21T01:31:24;0.20;;;0.20;;
38843;SDS011;24596;48.080;8.362;2023-11-21T01:33:49;0.68;;;0.20;;
38843;SDS011;24596;48.080;8.362;2023-11-21T01:36:14;0.50;;;0.22;;
38843;SDS011;24596;48.080;8.362;2023-11-21T01:38:39;2.72;;;1.27;;
38843;SDS011;24596;48.080;8.362;2023-11-21T01:41:05;0.60;;;0.15;;
38843;SDS011;24596;48.080;8.362;2023-11-21T01:43:31;0.25;;;0.13;;
38843;SDS011;24596;48.080;8.362;2023-11-21T01:45:57;1.77;;;0.20;;
38843;SDS011;24596;48.080;8.362;2023-11-21T01:48:22;0.20;;;0.20;;
38843;SDS011;24596;48.080;8.362;2023-11-21T01:50:47;0.20;;;0.20;;
38843;SDS011;24596;48.080;8.362;2023-11-21T01:53:13;0.20;;;0.20;;
38843;SDS011;24596;48.080;8.362;2023-11-21T01:55:39;1.38;;;0.30;;
38843;SDS011;24596;48.080;8.362;2023-11-21T01:58:05;0.20;;;0.20;;
38843;SDS011;24596;48.080;8.362;2023-11-21T02:00:32;0.28;;;0.20;;
38843;SDS011;24596;48.080;8.362;2023-11-21T02:02:58;1.35;;;0.30;;
38843;SDS011;24596;48.080;8.362;2023-11-21T02:05:24;0.30;;;0.10;;
38843;SDS011;24596;48.080;8.362;2023-11-21T02:07:51;0.20;;;0.20;;
38843;SDS011;24596;48.080;8.362;2023-11-21T02:10:17;0.17;;;0.17;;
38843;SDS011;24596;48.080;8.362;2023-11-21T02:12:47;0.75;;;0.22;;
38843;SDS011;24596;48.080;8.362;2023-11-21T02:15:13;1.30;;;0.20;;
38843;SDS011;24596;48.080;8.362;2023-11-21T02:17:45;2.20;;;0.30;;
38843;SDS011;24596;48.080;8.362;2023-11-21T02:20:11;0.32;;;0.28;;
38843;SDS011;24596;48.080;8.362;2023-11-21T02:22:40;1.95;;;0.40;;
38843;SDS011;24596;48.080;8.362;2023-11-21T02:25:07;2.28;;;0.80;;
38843;SDS011;24596;48.080;8.362;2023-11-21T02:27:32;1.67;;;0.90;;
38843;SDS011;24596;48.080;8.362;2023-11-21T02:29:58;4.85;;;1.70;;
38843;SDS011;24596;48.080;8.362;2023-11-21T02:32:24;7.63;;;2.75;;
38843;SDS011;24596;48.080;8.362;2023-11-21T02:34:51;1.90;;;0.60;;
38843;SDS011;24596;48.080;8.362;2023-11-21T02:37:16;2.63;;;0.93;;
38843;SDS011;24596;48.080;8.362;2023-11-21T02:39:41;2.50;;;0.68;;
38843;SDS011;24596;48.080;8.362;2023-11-21T02:42:06;2.08;;;0.63;;
38843;SDS011;24596;48.080;8.362;2023-11-21T02:44:31;1.77;;;0.88;;
38843;SDS011;24596;48.080;8.362;2023-11-21T02:46:57;1.00;;;0.63;;
38843;SDS011;24596;48.080;8.362;2023-11-21T02:49:23;1.98;;;0.50;;
38843;SDS011;24596;48.080;8.362;2023-11-21T02:51:48;1.88;;;0.70;;
38843;SDS011;24596;48.080;8.362;2023-11-21T02:54:13;0.75;;;0.50;;
38843;SDS011;24596;48.080;8.362;2023-11-21T02:56:38;0.77;;;0.50;;
38843;SDS011;24596;48.080;8.362;2023-11-21T02:59:05;0.57;;;0.50;;
38843;SDS011;24596;48.080;8.362;2023-11-21T03:01:30;2.15;;;0.70;;
38843;SDS011;24596;48.080;8.362;2023-11-21T03:03:56;1.52;;;0.70;;
38843;SDS011;24596;48.080;8.362;2023-11-21T03:06:21;1.23;;;0.40;;
38843;SDS011;24596;48.080;8.362;2023-11-21T03:08:47;1.00;;;0.65;;
38843;SDS011;24596;48.080;8.362;2023-11-21T03:11:12;0.35;;;0.30;;
38843;SDS011;24596;48.080;8.362;2023-11-21T03:13:38;0.20;;;0.20;;
38843;SDS011;24596;48.080;8.362;2023-11-21T03:16:04;1.13;;;0.47;;
38843;SDS011;24596;48.080;8.362;2023-11-21T03:18:29;2.75;;;0.43;;
38843;SDS011;24596;48.080;8.362;2023-11-21T03:20:54;0.47;;;0.38;;
38843;SDS011;24596;48.080;8.362;2023-11-21T03:23:19;2.08;;;0.52;;
38843;SDS011;24596;48.080;8.362;2023-11-21T03:25:45;2.00;;;0.52;;
38843;SDS011;24596;48.080;8.362;2023-11-21T03:28:10;1.88;;;0.50;;
38843;SDS011;24596;48.080;8.362;2023-11-21T03:30:36;1.30;;;0.52;;
38843;SDS011;24596;48.080;8.362;2023-11-21T03:33:01;1.50;;;0.60;;
38843;SDS011;24596;48.080;8.362;2023-11-21T03:35:26;2.70;;;0.50;;
38843;SDS011;24596;48.080;8.362;2023-11-21T03:37:52;2.55;;;0.57;;
38843;SDS011;24596;48.080;8.362;2023-11-21T03:40:17;1.00;;;0.57;;
38843;SDS011;24596;48.080;8.362;2023-11-21T03:42:42;1.08;;;0.43;;
38843;SDS011;24596;48.080;8.362;2023-11-21T03:45:07;1.52;;;0.60;;
38843;SDS011;24596;48.080;8.362;2023-11-21T03:47:33;0.65;;;0.40;;
38843;SDS011;24596;48.080;8.362;2023-11-21T03:49:58;0.98;;;0.30;;
38843;SDS011;24596;48.080;8.362;2023-11-21T03:52:24;1.85;;;0.57;;
38843;SDS011;24596;48.080;8.362;2023-11-21T03:54:50;0.50;;;0.40;;
38843;SDS011;24596;48.080;8.362;2023-11-21T03:57:15;1.83;;;0.35;;
38843;SDS011;24596;48.080;8.362;2023-11-21T03:59:40;0.70;;;0.35;;
38843;SDS011;24596;48.080;8.362;2023-11-21T04:02:06;2.72;;;0.40;;
38843;SDS011;24596;48.080;8.362;2023-11-21T04:04:32;1.15;;;0.40;;
38843;SDS011;24596;48.080;8.362;2023-11-21T04:06:57;1.40;;;0.47;;
38843;SDS011;24596;48.080;8.362;2023-11-21T04:09:23;1.25;;;0.40;;
38843;SDS011;24596;48.080;8.362;2023-11-21T04:11:50;1.00;;;0.30;;
38843;SDS011;24596;48.080;8.362;2023-11-21T04:14:15;1.52;;;0.38;;
38843;SDS011;24596;48.080;8.362;2023-11-21T04:16:40;0.75;;;0.30;;
38843;SDS011;24596;48.080;8.362;2023-11-21T04:19:05;0.40;;;0.40;;
38843;SDS011;24596;48.080;8.362;2023-11-21T04:21:31;2.92;;;0.30;;
38843;SDS011;24596;48.080;8.362;2023-11-21T04:23:58;0.43;;;0.40;;
38843;SDS011;24596;48.080;8.362;2023-11-21T04:26:23;0.73;;;0.50;;
38843;SDS011;24596;48.080;8.362;2023-11-21T04:28:48;6.10;;;0.90;;
38843;SDS011;24596;48.080;8.362;2023-11-21T04:31:13;1.13;;;0.70;;
38843;SDS011;24596;48.080;8.362;2023-11-21T04:33:39;2.20;;;0.93;;
38843;SDS011;24596;48.080;8.362;2023-11-21T04:36:04;2.65;;;0.50;;
38843;SDS011;24596;48.080;8.362;2023-11-21T04:38:29;3.22;;;0.90;;
38843;SDS011;24596;48.080;8.362;2023-11-21T04:40:54;1.48;;;0.70;;
38843;SDS011;24596;48.080;8.362;2023-11-21T04:43:20;2.67;;;0.90;;
38843;SDS011;24596;48.080;8.362;2023-11-21T04:45:45;2.42;;;1.20;;
38843;SDS011;24596;48.080;8.362;2023-11-21T04:48:10;2.13;;;0.80;;
38843;SDS011;24596;48.080;8.362;2023-11-21T04:50:35;1.65;;;0.80;;
38843;SDS011;24596;48.080;8.362;2023-11-21T04:53:01;5.57;;;1.30;;
38843;SDS011;24596;48.080;8.362;2023-11-21T04:55:26;3.30;;;1.10;;
38843;SDS011;24596;48.080;8.362;2023-11-21T04:57:53;4.25;;;1.33;;
38843;SDS011;24596;48.080;8.362;2023-11-21T05:00:18;2.55;;;0.95;;
38843;SDS011;24596;48.080;8.362;2023-11-21T05:02:43;3.78;;;0.77;;
38843;SDS011;24596;48.080;8.362;2023-11-21T05:05:09;2.65;;;1.10;;
38843;SDS011;24596;48.080;8.362;2023-11-21T05:07:35;3.28;;;1.00;;
38843;SDS011;24596;48.080;8.362;2023-11-21T05:10:00;2.58;;;1.20;;
38843;SDS011;24596;48.080;8.362;2023-11-21T05:12:30;3.13;;;1.17;;
38843;SDS011;24596;48.080;8.362;2023-11-21T05:14:58;3.75;;;1.08;;
38843;SDS011;24596;48.080;8.362;2023-11-21T05:17:23;3.17;;;1.30;;
38843;SDS011;24596;48.080;8.362;2023-11-21T05:19:48;4.72;;;1.50;;
38843;SDS011;24596;48.080;8.362;2023-11-21T05:22:13;9.73;;;2.72;;
38843;SDS011;24596;48.080;8.362;2023-11-21T05:24:39;7.53;;;2.38;;
38843;SDS011;24596;48.080;8.362;2023-11-21T05:27:04;3.97;;;1.00;;
38843;SDS011;24596;48.080;8.362;2023-11-21T05:29:29;3.03;;;1.13;;
38843;SDS011;24596;48.080;8.362;2023-11-21T05:31:54;4.28;;;1.55;;
38843;SDS011;24596;48.080;8.362;2023-11-21T05:34:20;3.88;;;1.05;;
38843;SDS011;24596;48.080;8.362;2023-11-21T05:36:45;3.65;;;1.52;;
38843;SDS011;24596;48.080;8.362;2023-11-21T05:39:11;4.03;;;1.60;;
38843;SDS011;24596;48.080;8.362;2023-11-21T05:41:36;4.80;;;1.30;;
38843;SDS011;24596;48.080;8.362;2023-11-21T05:44:01;3.33;;;1.45;;
38843;SDS011;24596;48.080;8.362;2023-11-21T05:46:27;3.38;;;1.40;;
38843;SDS011;24596;48.080;8.362;2023-11-21T05:48:52;1.92;;;0.90;;
38843;SDS011;24596;48.080;8.362;2023-11-21T05:51:17;2.22;;;0.95;;
38843;SDS011;24596;48.080;8.362;2023-11-21T05:53:42;3.38;;;1.60;;
38843;SDS011;24596;48.080;8.362;2023-11-21T05:56:08;2.70;;;1.38;;
38843;SDS011;24596;48.080;8.362;2023-11-21T05:58:33;4.43;;;1.20;;
38843;SDS011;24596;48.080;8.362;2023-11-21T06:00:58;2.20;;;1.15;;
38843;SDS011;24596;48.080;8.362;2023-11-21T06:03:23;2.92;;;1.45;;
38843;SDS011;24596;48.080;8.362;2023-11-21T06:05:48;2.60;;;1.10;;
38843;SDS011;24596;48.080;8.362;2023-11-21T06:08:14;2.58;;;0.85;;
38843;SDS011;24596;48.080;8.362;2023-11-21T06:10:42;3.53;;;1.50;;
38843;SDS011;24596;48.080;8.362;2023-11-21T06:13:08;108.28;;;6.10;;
38843;SDS011;24596;48.080;8.362;2023-11-21T06:15:35;6.65;;;2.13;;
38843;SDS011;24596;48.080;8.362;2023-11-21T06:18:00;3.78;;;2.10;;
38843;SDS011;24596;48.080;8.362;2023-11-21T06:20:25;4.70;;;2.33;;
38843;SDS011;24596;48.080;8.362;2023-11-21T06:22:51;5.78;;;2.40;;
38843;SDS011;24596;48.080;8.362;2023-11-21T06:25:16;4.32;;;2.05;;
38843;SDS011;24596;48.080;8.362;2023-11-21T06:27:42;3.90;;;1.98;;
38843;SDS011;24596;48.080;8.362;2023-11-21T06:30:09;7.60;;;2.78;;
38843;SDS011;24596;48.080;8.362;2023-11-21T06:32:35;4.35;;;1.75;;
38843;SDS011;24596;48.080;8.362;2023-11-21T06:35:01;3.65;;;1.83;;
38843;SDS011;24596;48.080;8.362;2023-11-21T06:37:26;5.15;;;2.22;;
38843;SDS011;24596;48.080;8.362;2023-11-21T06:39:52;4.95;;;1.80;;
38843;SDS011;24596;48.080;8.362;2023-11-21T06:42:17;10.30;;;1.92;;
38843;SDS011;24596;48.080;8.362;2023-11-21T06:44:44;6.45;;;2.42;;
38843;SDS011;24596;48.080;8.362;2023-11-21T06:47:09;6.40;;;2.00;;
38843;SDS011;24596;48.080;8.362;2023-11-21T06:49:34;5.43;;;1.88;;
38843;SDS011;24596;48.080;8.362;2023-11-21T06:51:59;5.05;;;2.00;;
38843;SDS011;24596;48.080;8.362;2023-11-21T06:54:27;4.72;;;1.35;;
38843;SDS011;24596;48.080;8.362;2023-11-21T06:56:52;6.75;;;1.83;;
38843;SDS011;24596;48.080;8.362;2023-11-21T06:59:18;5.57;;;2.35;;
38843;SDS011;24596;48.080;8.362;2023-11-21T07:01:43;7.28;;;2.08;;
38843;SDS011;24596;48.080;8.362;2023-11-21T07:04:09;4.15;;;1.35;;
38843;SDS011;24596;48.080;8.362;2023-11-21T07:06:35;1.45;;;0.80;;
38843;SDS011;24596;48.080;8.362;2023-11-21T07:09:00;0.80;;;0.57;;
38843;SDS011;24596;48.080;8.362;2023-11-21T07:11:26;4.40;;;0.88;;
38843;SDS011;24596;48.080;8.362;2023-11-21T07:13:51;2.78;;;0.90;;
38843;SDS011;24596;48.080;8.362;2023-11-21T07:16:17;1.70;;;0.88;;
38843;SDS011;24596;48.080;8.362;2023-11-21T07:18:43;1.52;;;0.70;;
38843;SDS011;24596;48.080;8.362;2023-11-21T07:21:08;1.50;;;0.90;;
38843;SDS011;24596;48.080;8.362;2023-11-21T07:23:34;1.50;;;0.80;;
38843;SDS011;24596;48.080;8.362;2023-11-21T07:25:59;1.88;;;0.90;;
38843;SDS011;24596;48.080;8.362;2023-11-21T07:28:24;2.88;;;1.40;;
38843;SDS011;24596;48.080;8.362;2023-11-21T07:30:50;3.67;;;1.30;;
38843;SDS011;24596;48.080;8.362;2023-11-21T07:33:15;2.63;;;1.20;;
38843;SDS011;24596;48.080;8.362;2023-11-21T07:35:41;2.08;;;0.90;;
38843;SDS011;24596;48.080;8.362;2023-11-21T07:38:06;2.45;;;1.17;;
38843;SDS011;24596;48.080;8.362;2023-11-21T07:40:31;2.92;;;1.10;;
38843;SDS011;24596;48.080;8.362;2023-11-21T07:42:57;2.80;;;1.30;;
38843;SDS011;24596;48.080;8.362;2023-11-21T07:45:22;5.75;;;1.27;;
38843;SDS011;24596;48.080;8.362;2023-11-21T07:47:47;4.72;;;1.70;;
38843;SDS011;24596;48.080;8.362;2023-11-21T07:50:12;4.38;;;1.63;;
38843;SDS011;24596;48.080;8.362;2023-11-21T07:52:38;4.45;;;1.88;;
38843;SDS011;24596;48.080;8.362;2023-11-21T07:55:07;4.00;;;1.60;;
38843;SDS011;24596;48.080;8.362;2023-11-21T07:57:33;7.90;;;3.55;;
38843;SDS011;24596;48.080;8.362;2023-11-21T07:59:58;2.75;;;1.10;;
38843;SDS011;24596;48.080;8.362;2023-11-21T08:02:25;3.45;;;1.00;;
38843;SDS011;24596;48.080;8.362;2023-11-21T08:04:55;2.65;;;1.10;;
38843;SDS011;24596;48.080;8.362;2023-11-21T08:07:21;4.07;;;1.10;;
38843;SDS011;24596;48.080;8.362;2023-11-21T08:09:46;2.63;;;1.55;;
38843;SDS011;24596;48.080;8.362;2023-11-21T08:12:14;3.33;;;1.30;;
38843;SDS011;24596;48.080;8.362;2023-11-21T08:14:39;2.67;;;1.30;;
38843;SDS011;24596;48.080;8.362;2023-11-21T08:17:05;4.25;;;1.40;;
38843;SDS011;24596;48.080;8.362;2023-11-21T08:19:30;3.88;;;1.90;;
38843;SDS011;24596;48.080;8.362;2023-11-21T08:21:56;3.88;;;1.50;;
38843;SDS011;24596;48.080;8.362;2023-11-21T08:24:21;2.72;;;1.30;;
38843;SDS011;24596;48.080;8.362;2023-11-21T08:26:47;3.20;;;1.50;;
38843;SDS011;24596;48.080;8.362;2023-11-21T08:29:12;2.75;;;1.40;;
38843;SDS011;24596;48.080;8.362;2023-11-21T08:31:38;4.10;;;1.42;;
38843;SDS011;24596;48.080;8.362;2023-11-21T08:34:04;2.83;;;1.40;;
38843;SDS011;24596;48.080;8.362;2023-11-21T08:36:29;3.80;;;1.52;;
38843;SDS011;24596;48.080;8.362;2023-11-21T08:38:56;2.58;;;1.40;;
38843;SDS011;24596;48.080;8.362;2023-11-21T08:41:21;2.92;;;1.35;;
38843;SDS011;24596;48.080;8.362;2023-11-21T08:43:50;5.93;;;1.50;;
38843;SDS011;24596;48.080;8.362;2023-11-21T08:46:15;5.45;;;1.70;;
38843;SDS011;24596;48.080;8.362;2023-11-21T08:48:42;3.85;;;1.73;;
38843;SDS011;24596;48.080;8.362;2023-11-21T08:51:09;4.20;;;1.48;;
38843;SDS011;24596;48.080;8.362;2023-11-21T08:53:35;3.53;;;1.75;;
38843;SDS011;24596;48.080;8.362;2023-11-21T08:56:00;4.20;;;1.90;;
38843;SDS011;24596;48.080;8.362;2023-11-21T08:58:26;3.53;;;1.70;;
38843;SDS011;24596;48.080;8.362;2023-11-21T09:00:51;4.47;;;2.13;;
38843;SDS011;24596;48.080;8.362;2023-11-21T09:03:16;3.80;;;1.80;;
38843;SDS011;24596;48.080;8.362;2023-11-21T09:05:41;3.88;;;1.83;;
38843;SDS011;24596;48.080;8.362;2023-11-21T09:08:07;3.92;;;1.67;;
38843;SDS011;24596;48.080;8.362;2023-11-21T09:10:35;6.15;;;1.85;;
38843;SDS011;24596;48.080;8.362;2023-11-21T09:15:29;3.80;;;1.50;;
38843;SDS011;24596;48.080;8.362;2023-11-21T09:17:54;3.58;;;1.67;;
38843;SDS011;24596;48.080;8.362;2023-11-21T09:20:21;4.90;;;1.48;;
38843;SDS011;24596;48.080;8.362;2023-11-21T09:22:48;2.97;;;1.30;;
38843;SDS011;24596;48.080;8.362;2023-11-21T09:25:13;4.43;;;1.40;;
38843;SDS011;24596;48.080;8.362;2023-11-21T09:27:38;4.35;;;1.30;;
38843;SDS011;24596;48.080;8.362;2023-11-21T09:30:04;3.33;;;1.20;;
38843;SDS011;24596;48.080;8.362;2023-11-21T09:32:36;2.50;;;1.33;;
38843;SDS011;24596;48.080;8.362;2023-11-21T09:35:02;2.85;;;1.30;;
38843;SDS011;24596;48.080;8.362;2023-11-21T09:37:27;4.60;;;2.00;;
38843;SDS011;24596;48.080;8.362;2023-11-21T09:39:53;4.07;;;1.50;;
38843;SDS011;24596;48.080;8.362;2023-11-21T09:47:33;3.78;;;1.38;;
38843;SDS011;24596;48.080;8.362;2023-11-21T09:50:01;4.82;;;2.25;;
38843;SDS011;24596;48.080;8.362;2023-11-21T09:52:26;6.60;;;2.70;;
38843;SDS011;24596;48.080;8.362;2023-11-21T09:54:52;3.80;;;1.75;;
38843;SDS011;24596;48.080;8.362;2023-11-21T09:57:19;4.07;;;1.42;;
38843;SDS011;24596;48.080;8.362;2023-11-21T09:59:44;2.80;;;1.27;;
38843;SDS011;24596;48.080;8.362;2023-11-21T10:02:10;5.03;;;1.70;;
38843;SDS011;24596;48.080;8.362;2023-11-21T10:04:38;3.33;;;1.20;;
38843;SDS011;24596;48.080;8.362;2023-11-21T10:07:04;3.70;;;1.30;;
38843;SDS011;24596;48.080;8.362;2023-11-21T10:09:33;4.55;;;1.10;;
38843;SDS011;24596;48.080;8.362;2023-11-21T10:11:59;3.53;;;1.00;;
38843;SDS011;24596;48.080;8.362;2023-11-21T10:14:25;6.30;;;1.33;;
38843;SDS011;24596;48.080;8.362;2023-11-21T10:16:54;3.33;;;1.35;;
38843;SDS011;24596;48.080;8.362;2023-11-21T10:19:19;4.68;;;1.60;;
38843;SDS011;24596;48.080;8.362;2023-11-21T10:21:46;2.08;;;1.10;;
38843;SDS011;24596;48.080;8.362;2023-11-21T10:24:11;6.43;;;2.72;;
38843;SDS011;24596;48.080;8.362;2023-11-21T10:26:37;3.55;;;1.50;;
38843;SDS011;24596;48.080;8.362;2023-11-21T10:29:03;1.88;;;0.93;;
38843;SDS011;24596;48.080;8.362;2023-11-21T10:31:31;2.00;;;0.77;;
38843;SDS011;24596;48.080;8.362;2023-11-21T10:36:37;1.25;;;0.70;;
38843;SDS011;24596;48.080;8.362;2023-11-21T10:39:02;2.47;;;1.05;;
38843;SDS011;24596;48.080;8.362;2023-11-21T10:41:27;2.67;;;0.77;;
38843;SDS011;24596;48.080;8.362;2023-11-21T10:43:53;3.42;;;1.30;;
38843;SDS011;24596;48.080;8.362;2023-11-21T10:46:18;2.08;;;1.00;;
38843;SDS011;24596;48.080;8.362;2023-11-21T10:48:43;2.20;;;1.10;;
38843;SDS011;24596;48.080;8.362;2023-11-21T10:51:08;1.88;;;0.70;;
38843;SDS011;24596;48.080;8.362;2023-11-21T10:53:38;2.90;;;2.08;;
38843;SDS011;24596;48.080;8.362;2023-11-21T10:56:05;2.80;;;1.00;;
38843;SDS011;24596;48.080;8.362;2023-11-21T10:58:32;1.45;;;0.75;;
38843;SDS011;24596;48.080;8.362;2023-11-21T11:00:58;1.00;;;0.65;;
38843;SDS011;24596;48.080;8.362;2023-11-21T11:03:23;0.88;;;0.60;;
38843;SDS011;24596;48.080;8.362;2023-11-21T11:05:49;1.75;;;0.65;;
38843;SDS011;24596;48.080;8.362;2023-11-21T11:08:20;1.45;;;0.73;;
38843;SDS011;24596;48.080;8.362;2023-11-21T11:10:51;1.60;;;0.85;;
38843;SDS011;24596;48.080;8.362;2023-11-21T11:13:16;1.95;;;0.80;;
38843;SDS011;24596;48.080;8.362;2023-11-21T11:15:41;1.85;;;0.57;;
38843;SDS011;24596;48.080;8.362;2023-11-21T11:18:07;3.28;;;0.70;;
38843;SDS011;24596;48.080;8.362;2023-11-21T11:20:34;0.90;;;0.55;;
38843;SDS011;24596;48.080;8.362;2023-11-21T11:35:52;1.55;;;0.55;;
38843;SDS011;24596;48.080;8.362;2023-11-21T11:38:21;0.75;;;0.52;;
38843;SDS011;24596;48.080;8.362;2023-11-21T11:40:47;1.65;;;0.50;;
38843;SDS011;24596;48.080;8.362;2023-11-21T11:43:12;1.75;;;0.57;;
38843;SDS011;24596;48.080;8.362;2023-11-21T11:45:38;2.13;;;0.88;;
38843;SDS011;24596;48.080;8.362;2023-11-21T11:48:10;2.40;;;0.60;;
38843;SDS011;24596;48.080;8.362;2023-11-21T11:50:41;1.17;;;0.75;;
38843;SDS011;24596;48.080;8.362;2023-11-21T11:53:13;1.52;;;0.60;;
38843;SDS011;24596;48.080;8.362;2023-11-21T11:55:39;1.65;;;0.68;;
38843;SDS011;24596;48.080;8.362;2023-11-21T11:58:05;0.63;;;0.40;;
38843;SDS011;24596;48.080;8.362;2023-11-21T12:00:34;0.90;;;0.40;;
38843;SDS011;24596;48.080;8.362;2023-11-21T12:03:02;3.38;;;0.60;;
38843;SDS011;24596;48.080;8.362;2023-11-21T12:05:28;0.65;;;0.40;;
38843;SDS011;24596;48.080;8.362;2023-11-21T12:07:55;2.50;;;1.65;;
38843;SDS011;24596;48.080;8.362;2023-11-21T12:10:24;1.10;;;0.43;;
38843;SDS011;24596;48.080;8.362;2023-11-21T12:12:50;0.30;;;0.30;;
38843;SDS011;24596;48.080;8.362;2023-11-21T12:15:17;0.35;;;0.30;;
38843;SDS011;24596;48.080;8.362;2023-11-21T12:17:43;0.80;;;0.40;;
38843;SDS011;24596;48.080;8.362;2023-11-21T12:20:09;0.50;;;0.30;;
38843;SDS011;24596;48.080;8.362;2023-11-21T12:22:45;0.43;;;0.30;;
38843;SDS011;24596;48.080;8.362;2023-11-21T12:25:14;0.40;;;0.30;;
38843;SDS011;24596;48.080;8.362;2023-11-21T12:27:41;0.30;;;0.30;;
38843;SDS011;24596;48.080;8.362;2023-11-21T12:30:06;0.52;;;0.40;;
38843;SDS011;24596;48.080;8.362;2023-11-21T12:32:38;0.70;;;0.30;;
38843;SDS011;24596;48.080;8.362;2023-11-21T12:35:03;0.47;;;0.30;;
38843;SDS011;24596;48.080;8.362;2023-11-21T12:37:29;0.65;;;0.40;;
38843;SDS011;24596;48.080;8.362;2023-11-21T12:39:54;0.50;;;0.30;;
38843;SDS011;24596;48.080;8.362;2023-11-21T12:42:22;0.70;;;0.40;;
38843;SDS011;24596;48.080;8.362;2023-11-21T12:44:48;0.47;;;0.32;;
38843;SDS011;24596;48.080;8.362;2023-11-21T12:47:16;0.63;;;0.40;;
38843;SDS011;24596;48.080;8.362;2023-11-21T12:49:41;1.42;;;0.50;;
38843;SDS011;24596;48.080;8.362;2023-11-21T12:52:09;0.95;;;0.40;;
38843;SDS011;24596;48.080;8.362;2023-11-21T12:54:34;0.73;;;0.43;;
38843;SDS011;24596;48.080;8.362;2023-11-21T12:57:00;2.05;;;0.30;;
38843;SDS011;24596;48.080;8.362;2023-11-21T12:59:27;0.32;;;0.30;;
38843;SDS011;24596;48.080;8.362;2023-11-21T13:01:54;1.17;;;0.38;;
38843;SDS011;24596;48.080;8.362;2023-11-21T13:04:29;0.57;;;0.30;;
38843;SDS011;24596;48.080;8.362;2023-11-21T13:06:54;0.22;;;0.20;;
38843;SDS011;24596;48.080;8.362;2023-11-21T13:09:20;0.25;;;0.25;;
38843;SDS011;24596;48.080;8.362;2023-11-21T13:11:46;1.67;;;0.40;;
38843;SDS011;24596;48.080;8.362;2023-11-21T13:14:11;1.30;;;0.28;;
38843;SDS011;24596;48.080;8.362;2023-11-21T13:16:37;0.30;;;0.22;;
38843;SDS011;24596;48.080;8.362;2023-11-21T13:19:04;0.60;;;0.30;;
38843;SDS011;24596;48.080;8.362;2023-11-21T13:21:29;1.02;;;0.30;;
38843;SDS011;24596;48.080;8.362;2023-11-21T13:23:54;0.20;;;0.20;;
38843;SDS011;24596;48.080;8.362;2023-11-21T13:26:21;0.47;;;0.35;;
38843;SDS011;24596;48.080;8.362;2023-11-21T13:28:48;0.43;;;0.30;;
38843;SDS011;24596;48.080;8.362;2023-11-21T13:31:13;0.20;;;0.20;;
38843;SDS011;24596;48.080;8.362;2023-11-21T13:33:51;1.02;;;0.50;;
38843;SDS011;24596;48.080;8.362;2023-11-21T13:36:23;1.13;;;0.55;;
38843;SDS011;24596;48.080;8.362;2023-11-21T13:38:49;1.02;;;0.50;;
38843;SDS011;24596;48.080;8.362;2023-11-21T13:41:15;0.45;;;0.40;;
38843;SDS011;24596;48.080;8.362;2023-11-21T13:43:40;0.75;;;0.40;;
38843;SDS011;24596;48.080;8.362;2023-11-21T13:46:09;0.68;;;0.38;;
38843;SDS011;24596;48.080;8.362;2023-11-21T13:48:46;0.80;;;0.30;;
38843;SDS011;24596;48.080;8.362;2023-11-21T13:51:20;0.95;;;0.40;;
38843;SDS011;24596;48.080;8.362;2023-11-21T13:53:54;0.20;;;0.20;;
38843;SDS011;24596;48.080;8.362;2023-11-21T13:56:20;0.60;;;0.30;;
38843;SDS011;24596;48.080;8.362;2023-11-21T13:58:49;0.30;;;0.30;;
38843;SDS011;24596;48.080;8.362;2023-11-21T14:01:18;0.82;;;0.40;;
38843;SDS011;24596;48.080;8.362;2023-11-21T14:03:55;0.30;;;0.30;;
38843;SDS011;24596;48.080;8.362;2023-11-21T14:06:39;2.05;;;0.40;;
38843;SDS011;24596;48.080;8.362;2023-11-21T14:09:18;0.43;;;0.30;;
38843;SDS011;24596;48.080;8.362;2023-11-21T14:11:54;0.22;;;0.20;;
38843;SDS011;24596;48.080;8.362;2023-11-21T14:14:21;0.43;;;0.25;;
38843;SDS011;24596;48.080;8.362;2023-11-21T14:16:47;1.35;;;0.40;;
38843;SDS011;24596;48.080;8.362;2023-11-21T14:19:12;1.30;;;0.40;;
38843;SDS011;24596;48.080;8.362;2023-11-21T14:21:41;1.73;;;0.60;;
38843;SDS011;24596;48.080;8.362;2023-11-21T14:24:08;1.05;;;0.40;;
38843;SDS011;24596;48.080;8.362;2023-11-21T14:26:34;0.47;;;0.30;;
38843;SDS011;24596;48.080;8.362;2023-11-21T14:29:00;2.65;;;0.40;;
38843;SDS011;24596;48.080;8.362;2023-11-21T14:31:25;0.30;;;0.30;;
38843;SDS011;24596;48.080;8.362;2023-11-21T14:33:51;1.00;;;0.43;;
38843;SDS011;24596;48.080;8.362;2023-11-21T14:36:16;0.77;;;0.40;;
38843;SDS011;24596;48.080;8.362;2023-11-21T14:38:42;1.98;;;0.45;;
38843;SDS011;24596;48.080;8.362;2023-11-21T14:41:07;2.22;;;0.75;;
38843;SDS011;24596;48.080;8.362;2023-11-21T14:43:36;1.00;;;0.50;;
38843;SDS011;24596;48.080;8.362;2023-11-21T14:46:03;1.45;;;0.60;;
38843;SDS011;24596;48.080;8.362;2023-11-21T14:48:31;1.00;;;0.73;;
38843;SDS011;24596;48.080;8.362;2023-11-21T14:51:07;0.85;;;0.52;;
38843;SDS011;24596;48.080;8.362;2023-11-21T14:53:51;1.90;;;0.80;;
38843;SDS011;24596;48.080;8.362;2023-11-21T14:56:20;2.90;;;0.47;;
38843;SDS011;24596;48.080;8.362;2023-11-21T14:58:55;0.88;;;0.50;;
38843;SDS011;24596;48.080;8.362;2023-11-21T15:01:21;0.93;;;0.50;;
38843;SDS011;24596;48.080;8.362;2023-11-21T15:04:01;1.20;;;0.60;;
38843;SDS011;24596;48.080;8.362;2023-11-21T15:06:27;1.60;;;0.63;;